sensor_id;sensor_type;location;lat;lon;timestamp;P1;durP1;ratioP1;P2;durP2;ratioP2
53718;SDS011;39616;48.872;9.390;2022-07-10T00:01:51;7.43;;;4.00;;
53718;SDS011;39616;48.872;9.390;2022-07-10T00:04:22;4.63;;;3.30;;
53718;SDS011;39616;48.872;9.390;2022-07-10T00:06:52;3.92;;;3.63;;
53718;SDS011;39616;48.872;9.390;2022-07-10T00:09:22;5.38;;;4.20;;
53718;SDS011;39616;48.872;9.390;2022-07-10T00:11:53;6.35;;;3.70;;
53718;SDS011;39616;48.872;9.390;2022-07-10T00:14:23;6.03;;;3.85;;
53718;SDS011;39616;48.872;9.390;2022-07-10T00:16:54;5.43;;;3.53;;
53718;SDS011;39616;48.872;9.390;2022-07-10T00:19:24;4.18;;;3.78;;
53718;SDS011;39616;48.872;9.390;2022-07-10T00:21:54;5.28;;;3.40;;
53718;SDS011;39616;48.872;9.390;2022-07-10T00:24:24;4.15;;;3.75;;
53718;SDS011;39616;48.872;9.390;2022-07-10T00:26:55;4.00;;;3.30;;
53718;SDS011;39616;48.872;9.390;2022-07-10T00:29:25;6.25;;;4.22;;
53718;SDS011;39616;48.872;9.390;2022-07-10T00:31:56;5.60;;;3.72;;
53718;SDS011;39616;48.872;9.390;2022-07-10T00:34:26;6.32;;;4.03;;
53718;SDS011;39616;48.872;9.390;2022-07-10T00:36:56;8.05;;;4.10;;
53718;SDS011;39616;48.872;9.390;2022-07-10T00:39:27;4.22;;;3.78;;
53718;SDS011;39616;48.872;9.390;2022-07-10T00:42:07;6.95;;;3.83;;
53718;SDS011;39616;48.872;9.390;2022-07-10T00:44:39;6.85;;;4.03;;
53718;SDS011;39616;48.872;9.390;2022-07-10T00:47:11;5.28;;;3.95;;
53718;SDS011;39616;48.872;9.390;2022-07-10T00:49:42;4.20;;;3.78;;
53718;SDS011;39616;48.872;9.390;2022-07-10T00:52:13;4.90;;;4.10;;
53718;SDS011;39616;48.872;9.390;2022-07-10T00:54:48;4.13;;;3.67;;
53718;SDS011;39616;48.872;9.390;2022-07-10T00:57:22;7.40;;;4.18;;
53718;SDS011;39616;48.872;9.390;2022-07-10T00:59:53;6.55;;;4.78;;
53718;SDS011;39616;48.872;9.390;2022-07-10T01:02:24;7.25;;;5.15;;
53718;SDS011;39616;48.872;9.390;2022-07-10T01:04:56;4.78;;;4.30;;
53718;SDS011;39616;48.872;9.390;2022-07-10T01:07:27;8.82;;;4.72;;
53718;SDS011;39616;48.872;9.390;2022-07-10T01:09:58;7.07;;;4.90;;
53718;SDS011;39616;48.872;9.390;2022-07-10T01:12:29;8.60;;;4.80;;
53718;SDS011;39616;48.872;9.390;2022-07-10T01:15:01;9.20;;;5.68;;
53718;SDS011;39616;48.872;9.390;2022-07-10T01:17:31;8.23;;;4.70;;
53718;SDS011;39616;48.872;9.390;2022-07-10T01:20:06;10.93;;;5.90;;
53718;SDS011;39616;48.872;9.390;2022-07-10T01:25:09;8.13;;;5.63;;
53718;SDS011;39616;48.872;9.390;2022-07-10T01:27:41;8.30;;;5.78;;
53718;SDS011;39616;48.872;9.390;2022-07-10T01:30:11;7.95;;;6.30;;
53718;SDS011;39616;48.872;9.390;2022-07-10T01:32:41;8.70;;;6.38;;
53718;SDS011;39616;48.872;9.390;2022-07-10T01:35:12;10.23;;;5.68;;
53718;SDS011;39616;48.872;9.390;2022-07-10T01:37:43;7.57;;;5.85;;
53718;SDS011;39616;48.872;9.390;2022-07-10T01:40:13;5.70;;;5.10;;
53718;SDS011;39616;48.872;9.390;2022-07-10T01:42:44;6.93;;;5.75;;
53718;SDS011;39616;48.872;9.390;2022-07-10T01:45:16;7.13;;;6.00;;
53718;SDS011;39616;48.872;9.390;2022-07-10T01:47:47;7.22;;;5.85;;
53718;SDS011;39616;48.872;9.390;2022-07-10T01:50:17;9.65;;;6.22;;
53718;SDS011;39616;48.872;9.390;2022-07-10T01:52:47;14.40;;;5.78;;
53718;SDS011;39616;48.872;9.390;2022-07-10T01:55:18;10.32;;;6.60;;
53718;SDS011;39616;48.872;9.390;2022-07-10T01:57:48;9.20;;;7.22;;
53718;SDS011;39616;48.872;9.390;2022-07-10T02:00:18;8.45;;;6.28;;
53718;SDS011;39616;48.872;9.390;2022-07-10T02:02:49;9.13;;;6.85;;
53718;SDS011;39616;48.872;9.390;2022-07-10T02:05:39;8.20;;;6.75;;
53718;SDS011;39616;48.872;9.390;2022-07-10T02:08:09;8.80;;;6.60;;
53718;SDS011;39616;48.872;9.390;2022-07-10T02:10:40;14.57;;;7.90;;
53718;SDS011;39616;48.872;9.390;2022-07-10T02:13:10;8.20;;;7.13;;
53718;SDS011;39616;48.872;9.390;2022-07-10T02:15:41;8.88;;;7.03;;
53718;SDS011;39616;48.872;9.390;2022-07-10T02:18:14;8.65;;;7.20;;
53718;SDS011;39616;48.872;9.390;2022-07-10T02:20:44;9.25;;;6.97;;
53718;SDS011;39616;48.872;9.390;2022-07-10T02:23:14;9.60;;;7.10;;
53718;SDS011;39616;48.872;9.390;2022-07-10T02:25:45;9.85;;;6.72;;
53718;SDS011;39616;48.872;9.390;2022-07-10T02:28:15;8.43;;;7.38;;
53718;SDS011;39616;48.872;9.390;2022-07-10T02:30:45;12.15;;;7.20;;
53718;SDS011;39616;48.872;9.390;2022-07-10T02:33:16;11.70;;;7.65;;
53718;SDS011;39616;48.872;9.390;2022-07-10T02:35:46;10.38;;;7.90;;
53718;SDS011;39616;48.872;9.390;2022-07-10T02:38:16;12.48;;;7.25;;
53718;SDS011;39616;48.872;9.390;2022-07-10T02:40:47;12.35;;;7.05;;
53718;SDS011;39616;48.872;9.390;2022-07-10T02:43:17;9.98;;;7.68;;
53718;SDS011;39616;48.872;9.390;2022-07-10T02:45:47;11.48;;;6.55;;
53718;SDS011;39616;48.872;9.390;2022-07-10T02:48:18;9.20;;;7.22;;
53718;SDS011;39616;48.872;9.390;2022-07-10T02:50:48;8.48;;;6.32;;
53718;SDS011;39616;48.872;9.390;2022-07-10T02:53:19;7.18;;;6.32;;
53718;SDS011;39616;48.872;9.390;2022-07-10T02:55:49;10.20;;;6.53;;
53718;SDS011;39616;48.872;9.390;2022-07-10T02:58:20;8.40;;;7.00;;
53718;SDS011;39616;48.872;9.390;2022-07-10T03:00:50;9.20;;;6.60;;
53718;SDS011;39616;48.872;9.390;2022-07-10T03:03:21;9.27;;;6.85;;
53718;SDS011;39616;48.872;9.390;2022-07-10T03:05:51;8.30;;;6.55;;
53718;SDS011;39616;48.872;9.390;2022-07-10T03:08:21;9.13;;;6.63;;
53718;SDS011;39616;48.872;9.390;2022-07-10T03:10:52;7.80;;;6.57;;
53718;SDS011;39616;48.872;9.390;2022-07-10T03:13:22;6.60;;;5.90;;
53718;SDS011;39616;48.872;9.390;2022-07-10T03:15:55;8.32;;;6.47;;
53718;SDS011;39616;48.872;9.390;2022-07-10T03:18:25;8.00;;;5.93;;
53718;SDS011;39616;48.872;9.390;2022-07-10T03:20:56;6.28;;;5.13;;
53718;SDS011;39616;48.872;9.390;2022-07-10T03:23:26;8.20;;;6.40;;
53718;SDS011;39616;48.872;9.390;2022-07-10T03:25:57;14.77;;;6.13;;
53718;SDS011;39616;48.872;9.390;2022-07-10T03:28:27;10.93;;;6.40;;
53718;SDS011;39616;48.872;9.390;2022-07-10T03:30:57;10.73;;;5.95;;
53718;SDS011;39616;48.872;9.390;2022-07-10T03:33:27;7.75;;;6.95;;
53718;SDS011;39616;48.872;9.390;2022-07-10T03:35:58;9.88;;;6.22;;
53718;SDS011;39616;48.872;9.390;2022-07-10T03:38:31;8.82;;;6.05;;
53718;SDS011;39616;48.872;9.390;2022-07-10T03:41:01;7.53;;;6.78;;
53718;SDS011;39616;48.872;9.390;2022-07-10T03:43:31;8.68;;;5.90;;
53718;SDS011;39616;48.872;9.390;2022-07-10T03:46:02;7.88;;;6.30;;
53718;SDS011;39616;48.872;9.390;2022-07-10T03:48:32;10.85;;;6.20;;
53718;SDS011;39616;48.872;9.390;2022-07-10T03:51:03;8.32;;;6.35;;
53718;SDS011;39616;48.872;9.390;2022-07-10T03:53:33;9.52;;;5.97;;
53718;SDS011;39616;48.872;9.390;2022-07-10T03:56:04;6.80;;;5.70;;
53718;SDS011;39616;48.872;9.390;2022-07-10T03:58:34;9.65;;;5.80;;
53718;SDS011;39616;48.872;9.390;2022-07-10T04:01:05;6.93;;;5.43;;
53718;SDS011;39616;48.872;9.390;2022-07-10T04:03:35;10.93;;;6.60;;
53718;SDS011;39616;48.872;9.390;2022-07-10T04:06:05;6.05;;;4.95;;
53718;SDS011;39616;48.872;9.390;2022-07-10T04:08:36;9.95;;;6.18;;
53718;SDS011;39616;48.872;9.390;2022-07-10T04:11:07;7.63;;;5.60;;
53718;SDS011;39616;48.872;9.390;2022-07-10T04:13:37;9.38;;;6.50;;
53718;SDS011;39616;48.872;9.390;2022-07-10T04:16:07;12.25;;;6.40;;
53718;SDS011;39616;48.872;9.390;2022-07-10T04:18:42;10.38;;;6.90;;
53718;SDS011;39616;48.872;9.390;2022-07-10T04:21:13;10.18;;;5.88;;
53718;SDS011;39616;48.872;9.390;2022-07-10T04:23:43;8.23;;;6.07;;
53718;SDS011;39616;48.872;9.390;2022-07-10T04:26:13;14.98;;;6.03;;
53718;SDS011;39616;48.872;9.390;2022-07-10T04:28:44;9.40;;;5.25;;
53718;SDS011;39616;48.872;9.390;2022-07-10T04:31:14;8.50;;;5.57;;
53718;SDS011;39616;48.872;9.390;2022-07-10T04:33:44;9.55;;;5.97;;
53718;SDS011;39616;48.872;9.390;2022-07-10T04:36:14;7.75;;;5.43;;
53718;SDS011;39616;48.872;9.390;2022-07-10T04:38:46;7.78;;;5.30;;
53718;SDS011;39616;48.872;9.390;2022-07-10T04:41:16;8.88;;;5.70;;
53718;SDS011;39616;48.872;9.390;2022-07-10T04:43:46;6.57;;;5.10;;
53718;SDS011;39616;48.872;9.390;2022-07-10T04:46:17;8.90;;;4.90;;
53718;SDS011;39616;48.872;9.390;2022-07-10T04:48:47;7.55;;;4.97;;
53718;SDS011;39616;48.872;9.390;2022-07-10T04:51:17;7.90;;;4.53;;
53718;SDS011;39616;48.872;9.390;2022-07-10T04:53:48;7.80;;;4.55;;
53718;SDS011;39616;48.872;9.390;2022-07-10T04:56:18;7.78;;;4.78;;
53718;SDS011;39616;48.872;9.390;2022-07-10T04:58:49;4.95;;;4.50;;
53718;SDS011;39616;48.872;9.390;2022-07-10T05:01:19;6.90;;;4.95;;
53718;SDS011;39616;48.872;9.390;2022-07-10T05:03:50;9.07;;;4.50;;
53718;SDS011;39616;48.872;9.390;2022-07-10T05:06:20;8.43;;;4.80;;
53718;SDS011;39616;48.872;9.390;2022-07-10T05:08:51;5.28;;;4.63;;
53718;SDS011;39616;48.872;9.390;2022-07-10T05:11:21;5.13;;;4.60;;
53718;SDS011;39616;48.872;9.390;2022-07-10T05:13:52;4.40;;;3.85;;
53718;SDS011;39616;48.872;9.390;2022-07-10T05:16:22;6.47;;;4.07;;
53718;SDS011;39616;48.872;9.390;2022-07-10T05:18:53;8.98;;;4.30;;
53718;SDS011;39616;48.872;9.390;2022-07-10T05:21:23;6.60;;;3.72;;
53718;SDS011;39616;48.872;9.390;2022-07-10T05:23:55;4.97;;;4.28;;
53718;SDS011;39616;48.872;9.390;2022-07-10T05:26:25;8.02;;;3.97;;
53718;SDS011;39616;48.872;9.390;2022-07-10T05:28:56;7.30;;;3.75;;
53718;SDS011;39616;48.872;9.390;2022-07-10T05:31:26;5.65;;;4.30;;
53718;SDS011;39616;48.872;9.390;2022-07-10T05:33:56;6.15;;;3.95;;
53718;SDS011;39616;48.872;9.390;2022-07-10T05:36:26;7.00;;;4.47;;
53718;SDS011;39616;48.872;9.390;2022-07-10T05:38:57;3.58;;;3.25;;
53718;SDS011;39616;48.872;9.390;2022-07-10T05:41:27;7.35;;;4.13;;
53718;SDS011;39616;48.872;9.390;2022-07-10T05:43:58;11.10;;;4.00;;
53718;SDS011;39616;48.872;9.390;2022-07-10T05:46:31;4.95;;;2.63;;
53718;SDS011;39616;48.872;9.390;2022-07-10T05:49:02;6.35;;;3.55;;
53718;SDS011;39616;48.872;9.390;2022-07-10T05:51:32;4.18;;;2.92;;
53718;SDS011;39616;48.872;9.390;2022-07-10T05:54:02;6.70;;;3.42;;
53718;SDS011;39616;48.872;9.390;2022-07-10T05:56:33;2.88;;;2.60;;
53718;SDS011;39616;48.872;9.390;2022-07-10T05:59:04;3.20;;;2.33;;
53718;SDS011;39616;48.872;9.390;2022-07-10T06:01:34;4.10;;;2.08;;
53718;SDS011;39616;48.872;9.390;2022-07-10T06:04:05;5.30;;;2.45;;
53718;SDS011;39616;48.872;9.390;2022-07-10T06:06:36;1.83;;;1.65;;
53718;SDS011;39616;48.872;9.390;2022-07-10T06:09:06;4.15;;;2.50;;
53718;SDS011;39616;48.872;9.390;2022-07-10T06:11:36;4.82;;;1.65;;
53718;SDS011;39616;48.872;9.390;2022-07-10T06:14:07;3.38;;;2.00;;
53718;SDS011;39616;48.872;9.390;2022-07-10T06:16:37;3.42;;;1.50;;
53718;SDS011;39616;48.872;9.390;2022-07-10T06:19:07;2.83;;;1.30;;
53718;SDS011;39616;48.872;9.390;2022-07-10T06:21:38;4.78;;;1.40;;
53718;SDS011;39616;48.872;9.390;2022-07-10T06:24:08;1.70;;;1.00;;
53718;SDS011;39616;48.872;9.390;2022-07-10T06:26:38;3.58;;;1.15;;
53718;SDS011;39616;48.872;9.390;2022-07-10T06:29:09;3.97;;;1.20;;
53718;SDS011;39616;48.872;9.390;2022-07-10T06:31:39;2.10;;;1.05;;
53718;SDS011;39616;48.872;9.390;2022-07-10T06:34:09;2.85;;;1.30;;
53718;SDS011;39616;48.872;9.390;2022-07-10T06:36:40;1.38;;;0.93;;
53718;SDS011;39616;48.872;9.390;2022-07-10T06:39:10;9.07;;;1.63;;
53718;SDS011;39616;48.872;9.390;2022-07-10T06:41:40;1.48;;;0.90;;
53718;SDS011;39616;48.872;9.390;2022-07-10T06:44:11;5.85;;;1.05;;
53718;SDS011;39616;48.872;9.390;2022-07-10T06:46:41;1.83;;;0.82;;
53718;SDS011;39616;48.872;9.390;2022-07-10T06:49:11;1.88;;;0.90;;
53718;SDS011;39616;48.872;9.390;2022-07-10T06:51:42;1.80;;;1.02;;
53718;SDS011;39616;48.872;9.390;2022-07-10T06:54:12;3.10;;;0.85;;
53718;SDS011;39616;48.872;9.390;2022-07-10T06:56:42;3.85;;;1.00;;
53718;SDS011;39616;48.872;9.390;2022-07-10T06:59:12;3.67;;;0.80;;
53718;SDS011;39616;48.872;9.390;2022-07-10T07:01:43;1.63;;;0.60;;
53718;SDS011;39616;48.872;9.390;2022-07-10T07:04:13;1.10;;;0.73;;
53718;SDS011;39616;48.872;9.390;2022-07-10T07:06:43;3.05;;;0.65;;
53718;SDS011;39616;48.872;9.390;2022-07-10T07:09:14;1.20;;;0.75;;
53718;SDS011;39616;48.872;9.390;2022-07-10T07:11:44;3.15;;;0.55;;
53718;SDS011;39616;48.872;9.390;2022-07-10T07:14:15;1.40;;;0.60;;
53718;SDS011;39616;48.872;9.390;2022-07-10T07:16:46;2.20;;;0.80;;
53718;SDS011;39616;48.872;9.390;2022-07-10T07:19:27;2.17;;;0.55;;
53718;SDS011;39616;48.872;9.390;2022-07-10T07:22:16;2.80;;;0.70;;
53718;SDS011;39616;48.872;9.390;2022-07-10T07:25:05;1.15;;;0.70;;
53718;SDS011;39616;48.872;9.390;2022-07-10T07:27:37;2.85;;;0.85;;
53718;SDS011;39616;48.872;9.390;2022-07-10T07:30:09;1.35;;;0.70;;
53718;SDS011;39616;48.872;9.390;2022-07-10T07:32:42;2.05;;;0.77;;
53718;SDS011;39616;48.872;9.390;2022-07-10T07:35:14;3.10;;;0.80;;
53718;SDS011;39616;48.872;9.390;2022-07-10T07:37:45;1.70;;;0.80;;
53718;SDS011;39616;48.872;9.390;2022-07-10T07:40:19;2.47;;;0.80;;
53718;SDS011;39616;48.872;9.390;2022-07-10T07:42:53;3.70;;;0.82;;
53718;SDS011;39616;48.872;9.390;2022-07-10T07:45:24;1.83;;;0.80;;
53718;SDS011;39616;48.872;9.390;2022-07-10T07:47:56;2.67;;;0.80;;
53718;SDS011;39616;48.872;9.390;2022-07-10T07:50:36;2.25;;;0.90;;
53718;SDS011;39616;48.872;9.390;2022-07-10T07:53:06;2.75;;;0.82;;
53718;SDS011;39616;48.872;9.390;2022-07-10T07:55:36;3.25;;;0.70;;
53718;SDS011;39616;48.872;9.390;2022-07-10T07:58:07;4.68;;;0.80;;
53718;SDS011;39616;48.872;9.390;2022-07-10T08:00:37;1.70;;;0.60;;
53718;SDS011;39616;48.872;9.390;2022-07-10T08:03:08;1.10;;;0.80;;
53718;SDS011;39616;48.872;9.390;2022-07-10T08:05:38;0.90;;;0.70;;
53718;SDS011;39616;48.872;9.390;2022-07-10T08:08:08;3.03;;;0.80;;
53718;SDS011;39616;48.872;9.390;2022-07-10T08:10:40;1.85;;;0.88;;
53718;SDS011;39616;48.872;9.390;2022-07-10T08:13:10;2.85;;;0.70;;
53718;SDS011;39616;48.872;9.390;2022-07-10T08:15:40;2.92;;;0.80;;
53718;SDS011;39616;48.872;9.390;2022-07-10T08:18:11;1.02;;;0.65;;
53718;SDS011;39616;48.872;9.390;2022-07-10T08:20:41;0.60;;;0.60;;
53718;SDS011;39616;48.872;9.390;2022-07-10T08:23:11;1.60;;;0.80;;
53718;SDS011;39616;48.872;9.390;2022-07-10T08:25:42;6.43;;;1.27;;
53718;SDS011;39616;48.872;9.390;2022-07-10T08:28:12;1.13;;;0.63;;
53718;SDS011;39616;48.872;9.390;2022-07-10T08:30:42;4.30;;;0.80;;
53718;SDS011;39616;48.872;9.390;2022-07-10T08:33:13;1.90;;;0.60;;
53718;SDS011;39616;48.872;9.390;2022-07-10T08:35:43;2.72;;;0.77;;
53718;SDS011;39616;48.872;9.390;2022-07-10T08:38:13;2.10;;;0.70;;
53718;SDS011;39616;48.872;9.390;2022-07-10T08:40:44;2.22;;;0.80;;
53718;SDS011;39616;48.872;9.390;2022-07-10T08:43:15;1.58;;;0.60;;
53718;SDS011;39616;48.872;9.390;2022-07-10T08:45:46;4.15;;;0.70;;
53718;SDS011;39616;48.872;9.390;2022-07-10T08:48:22;1.58;;;0.60;;
53718;SDS011;39616;48.872;9.390;2022-07-10T08:50:54;2.40;;;0.73;;
53718;SDS011;39616;48.872;9.390;2022-07-10T08:53:30;2.00;;;0.60;;
53718;SDS011;39616;48.872;9.390;2022-07-10T08:56:01;3.38;;;0.60;;
53718;SDS011;39616;48.872;9.390;2022-07-10T08:58:31;2.15;;;0.70;;
53718;SDS011;39616;48.872;9.390;2022-07-10T09:01:03;2.20;;;0.80;;
53718;SDS011;39616;48.872;9.390;2022-07-10T09:03:33;3.15;;;0.63;;
53718;SDS011;39616;48.872;9.390;2022-07-10T09:06:04;4.47;;;0.70;;
53718;SDS011;39616;48.872;9.390;2022-07-10T09:08:35;2.90;;;0.70;;
53718;SDS011;39616;48.872;9.390;2022-07-10T09:11:17;2.42;;;0.60;;
53718;SDS011;39616;48.872;9.390;2022-07-10T09:13:55;2.60;;;0.60;;
53718;SDS011;39616;48.872;9.390;2022-07-10T09:16:30;2.22;;;0.77;;
53718;SDS011;39616;48.872;9.390;2022-07-10T09:19:36;1.90;;;0.60;;
53718;SDS011;39616;48.872;9.390;2022-07-10T09:24:36;2.00;;;0.55;;
53718;SDS011;39616;48.872;9.390;2022-07-10T09:27:12;2.87;;;0.80;;
53718;SDS011;39616;48.872;9.390;2022-07-10T09:29:45;2.05;;;0.60;;
53718;SDS011;39616;48.872;9.390;2022-07-10T09:32:17;1.92;;;0.70;;
53718;SDS011;39616;48.872;9.390;2022-07-10T09:34:48;1.88;;;0.70;;
53718;SDS011;39616;48.872;9.390;2022-07-10T09:37:41;1.48;;;0.57;;
53718;SDS011;39616;48.872;9.390;2022-07-10T09:40:13;2.88;;;0.60;;
53718;SDS011;39616;48.872;9.390;2022-07-10T09:42:44;1.52;;;0.55;;
53718;SDS011;39616;48.872;9.390;2022-07-10T09:45:17;1.25;;;0.60;;
53718;SDS011;39616;48.872;9.390;2022-07-10T09:50:19;1.15;;;0.50;;
53718;SDS011;39616;48.872;9.390;2022-07-10T09:52:56;1.23;;;0.60;;
53718;SDS011;39616;48.872;9.390;2022-07-10T09:55:28;2.03;;;0.63;;
53718;SDS011;39616;48.872;9.390;2022-07-10T09:58:04;1.05;;;0.57;;
53718;SDS011;39616;48.872;9.390;2022-07-10T10:00:39;3.83;;;0.50;;
53718;SDS011;39616;48.872;9.390;2022-07-10T10:03:11;1.25;;;0.50;;
53718;SDS011;39616;48.872;9.390;2022-07-10T10:05:54;4.13;;;0.70;;
53718;SDS011;39616;48.872;9.390;2022-07-10T10:08:32;2.47;;;0.60;;
53718;SDS011;39616;48.872;9.390;2022-07-10T10:11:14;3.92;;;0.60;;
53718;SDS011;39616;48.872;9.390;2022-07-10T10:16:20;2.65;;;0.60;;
53718;SDS011;39616;48.872;9.390;2022-07-10T10:18:50;2.53;;;0.40;;
53718;SDS011;39616;48.872;9.390;2022-07-10T10:21:41;1.83;;;0.47;;
53718;SDS011;39616;48.872;9.390;2022-07-10T10:24:11;1.60;;;0.40;;
53718;SDS011;39616;48.872;9.390;2022-07-10T10:26:43;2.80;;;0.40;;
53718;SDS011;39616;48.872;9.390;2022-07-10T10:29:15;1.52;;;0.50;;
53718;SDS011;39616;48.872;9.390;2022-07-10T10:31:45;4.93;;;0.60;;
53718;SDS011;39616;48.872;9.390;2022-07-10T10:34:37;1.58;;;0.45;;
53718;SDS011;39616;48.872;9.390;2022-07-10T10:37:41;0.73;;;0.40;;
53718;SDS011;39616;48.872;9.390;2022-07-10T10:40:34;0.93;;;0.47;;
53718;SDS011;39616;48.872;9.390;2022-07-10T10:43:20;1.00;;;0.40;;
53718;SDS011;39616;48.872;9.390;2022-07-10T10:45:52;1.70;;;0.50;;
53718;SDS011;39616;48.872;9.390;2022-07-10T10:48:23;1.08;;;0.40;;
53718;SDS011;39616;48.872;9.390;2022-07-10T10:50:53;2.33;;;0.50;;
53718;SDS011;39616;48.872;9.390;2022-07-10T10:53:24;4.63;;;0.70;;
53718;SDS011;39616;48.872;9.390;2022-07-10T11:01:23;2.10;;;0.50;;
53718;SDS011;39616;48.872;9.390;2022-07-10T11:06:41;2.05;;;0.47;;
53718;SDS011;39616;48.872;9.390;2022-07-10T11:09:22;1.13;;;0.40;;
53718;SDS011;39616;48.872;9.390;2022-07-10T11:14:33;0.52;;;0.40;;
53718;SDS011;39616;48.872;9.390;2022-07-10T11:17:07;2.13;;;0.40;;
53718;SDS011;39616;48.872;9.390;2022-07-10T11:19:39;1.48;;;0.40;;
53718;SDS011;39616;48.872;9.390;2022-07-10T11:22:12;0.50;;;0.30;;
53718;SDS011;39616;48.872;9.390;2022-07-10T11:25:13;4.50;;;0.40;;
53718;SDS011;39616;48.872;9.390;2022-07-10T11:28:06;2.88;;;0.60;;
53718;SDS011;39616;48.872;9.390;2022-07-10T11:33:22;1.85;;;0.40;;
53718;SDS011;39616;48.872;9.390;2022-07-10T11:35:53;2.38;;;0.40;;
53718;SDS011;39616;48.872;9.390;2022-07-10T11:38:24;2.15;;;0.68;;
53718;SDS011;39616;48.872;9.390;2022-07-10T11:40:56;2.13;;;0.52;;
53718;SDS011;39616;48.872;9.390;2022-07-10T11:43:26;3.17;;;0.70;;
53718;SDS011;39616;48.872;9.390;2022-07-10T11:45:56;2.70;;;0.40;;
53718;SDS011;39616;48.872;9.390;2022-07-10T11:48:32;1.38;;;0.40;;
53718;SDS011;39616;48.872;9.390;2022-07-10T11:51:31;0.73;;;0.43;;
53718;SDS011;39616;48.872;9.390;2022-07-10T11:54:04;0.73;;;0.40;;
53718;SDS011;39616;48.872;9.390;2022-07-10T11:56:46;1.02;;;0.40;;
53718;SDS011;39616;48.872;9.390;2022-07-10T11:59:25;1.67;;;0.60;;
53718;SDS011;39616;48.872;9.390;2022-07-10T12:01:57;0.80;;;0.60;;
53718;SDS011;39616;48.872;9.390;2022-07-10T12:04:28;2.58;;;0.45;;
53718;SDS011;39616;48.872;9.390;2022-07-10T12:06:59;1.80;;;0.57;;
53718;SDS011;39616;48.872;9.390;2022-07-10T12:09:30;2.35;;;0.50;;
53718;SDS011;39616;48.872;9.390;2022-07-10T12:12:02;2.40;;;0.50;;
53718;SDS011;39616;48.872;9.390;2022-07-10T12:14:34;2.03;;;0.77;;
53718;SDS011;39616;48.872;9.390;2022-07-10T12:17:11;1.35;;;0.50;;
53718;SDS011;39616;48.872;9.390;2022-07-10T12:19:47;1.88;;;0.50;;
53718;SDS011;39616;48.872;9.390;2022-07-10T12:22:20;1.55;;;0.40;;
53718;SDS011;39616;48.872;9.390;2022-07-10T12:24:51;2.13;;;0.50;;
53718;SDS011;39616;48.872;9.390;2022-07-10T12:27:40;0.57;;;0.40;;
53718;SDS011;39616;48.872;9.390;2022-07-10T12:30:13;1.17;;;0.50;;
53718;SDS011;39616;48.872;9.390;2022-07-10T12:32:43;3.63;;;0.65;;
53718;SDS011;39616;48.872;9.390;2022-07-10T12:35:14;1.17;;;0.40;;
53718;SDS011;39616;48.872;9.390;2022-07-10T12:37:48;1.45;;;0.40;;
53718;SDS011;39616;48.872;9.390;2022-07-10T12:40:34;1.13;;;0.35;;
53718;SDS011;39616;48.872;9.390;2022-07-10T12:43:05;1.27;;;0.40;;
53718;SDS011;39616;48.872;9.390;2022-07-10T12:45:36;1.55;;;0.50;;
53718;SDS011;39616;48.872;9.390;2022-07-10T12:48:07;1.63;;;0.40;;
53718;SDS011;39616;48.872;9.390;2022-07-10T12:50:51;1.27;;;0.40;;
53718;SDS011;39616;48.872;9.390;2022-07-10T12:53:22;2.03;;;0.60;;
53718;SDS011;39616;48.872;9.390;2022-07-10T12:55:52;1.70;;;0.50;;
53718;SDS011;39616;48.872;9.390;2022-07-10T12:58:22;5.00;;;0.50;;
53718;SDS011;39616;48.872;9.390;2022-07-10T13:00:53;2.78;;;0.50;;
53718;SDS011;39616;48.872;9.390;2022-07-10T13:03:24;1.38;;;0.40;;
53718;SDS011;39616;48.872;9.390;2022-07-10T13:05:58;0.70;;;0.47;;
53718;SDS011;39616;48.872;9.390;2022-07-10T13:08:28;0.57;;;0.35;;
53718;SDS011;39616;48.872;9.390;2022-07-10T13:10:59;0.77;;;0.50;;
53718;SDS011;39616;48.872;9.390;2022-07-10T13:13:29;4.82;;;0.50;;
53718;SDS011;39616;48.872;9.390;2022-07-10T13:16:00;4.85;;;0.40;;
53718;SDS011;39616;48.872;9.390;2022-07-10T13:18:30;1.58;;;0.40;;
53718;SDS011;39616;48.872;9.390;2022-07-10T13:21:00;3.22;;;0.40;;
53718;SDS011;39616;48.872;9.390;2022-07-10T13:23:32;0.60;;;0.40;;
53718;SDS011;39616;48.872;9.390;2022-07-10T13:26:03;2.92;;;0.40;;
53718;SDS011;39616;48.872;9.390;2022-07-10T13:28:36;0.70;;;0.30;;
53718;SDS011;39616;48.872;9.390;2022-07-10T13:31:07;1.08;;;0.30;;
53718;SDS011;39616;48.872;9.390;2022-07-10T13:33:38;1.20;;;0.32;;
53718;SDS011;39616;48.872;9.390;2022-07-10T13:36:08;1.67;;;0.38;;
53718;SDS011;39616;48.872;9.390;2022-07-10T13:38:39;5.60;;;0.40;;
53718;SDS011;39616;48.872;9.390;2022-07-10T13:41:09;1.52;;;0.45;;
53718;SDS011;39616;48.872;9.390;2022-07-10T13:43:40;0.40;;;0.30;;
53718;SDS011;39616;48.872;9.390;2022-07-10T13:46:10;1.30;;;0.30;;
53718;SDS011;39616;48.872;9.390;2022-07-10T13:48:41;0.82;;;0.40;;
53718;SDS011;39616;48.872;9.390;2022-07-10T13:51:11;0.32;;;0.30;;
53718;SDS011;39616;48.872;9.390;2022-07-10T13:53:42;1.25;;;0.50;;
53718;SDS011;39616;48.872;9.390;2022-07-10T13:56:12;6.70;;;0.30;;
53718;SDS011;39616;48.872;9.390;2022-07-10T13:58:42;2.10;;;0.20;;
53718;SDS011;39616;48.872;9.390;2022-07-10T14:01:13;3.45;;;0.20;;
53718;SDS011;39616;48.872;9.390;2022-07-10T14:03:43;1.33;;;0.30;;
53718;SDS011;39616;48.872;9.390;2022-07-10T14:06:14;1.80;;;0.40;;
53718;SDS011;39616;48.872;9.390;2022-07-10T14:08:44;3.65;;;0.68;;
53718;SDS011;39616;48.872;9.390;2022-07-10T14:11:14;4.20;;;0.40;;
53718;SDS011;39616;48.872;9.390;2022-07-10T14:13:45;2.03;;;0.30;;
53718;SDS011;39616;48.872;9.390;2022-07-10T14:16:16;0.70;;;0.30;;
53718;SDS011;39616;48.872;9.390;2022-07-10T14:18:46;0.60;;;0.35;;
53718;SDS011;39616;48.872;9.390;2022-07-10T14:21:16;0.82;;;0.38;;
53718;SDS011;39616;48.872;9.390;2022-07-10T14:23:47;1.25;;;0.30;;
53718;SDS011;39616;48.872;9.390;2022-07-10T14:26:19;2.08;;;0.45;;
53718;SDS011;39616;48.872;9.390;2022-07-10T14:28:49;0.63;;;0.30;;
53718;SDS011;39616;48.872;9.390;2022-07-10T14:31:21;1.88;;;0.30;;
53718;SDS011;39616;48.872;9.390;2022-07-10T14:33:51;0.30;;;0.20;;
53718;SDS011;39616;48.872;9.390;2022-07-10T14:36:21;0.60;;;0.47;;
53718;SDS011;39616;48.872;9.390;2022-07-10T14:38:56;2.35;;;0.30;;
53718;SDS011;39616;48.872;9.390;2022-07-10T14:41:27;0.43;;;0.20;;
53718;SDS011;39616;48.872;9.390;2022-07-10T14:43:57;0.63;;;0.35;;
53718;SDS011;39616;48.872;9.390;2022-07-10T14:46:28;0.45;;;0.28;;
53718;SDS011;39616;48.872;9.390;2022-07-10T14:48:58;0.50;;;0.25;;
53718;SDS011;39616;48.872;9.390;2022-07-10T14:51:29;1.63;;;0.30;;
53718;SDS011;39616;48.872;9.390;2022-07-10T14:53:59;0.43;;;0.20;;
53718;SDS011;39616;48.872;9.390;2022-07-10T14:56:29;1.08;;;0.30;;
53718;SDS011;39616;48.872;9.390;2022-07-10T14:59:00;0.88;;;0.30;;
53718;SDS011;39616;48.872;9.390;2022-07-10T15:01:30;1.63;;;0.22;;
53718;SDS011;39616;48.872;9.390;2022-07-10T15:04:00;1.65;;;0.30;;
53718;SDS011;39616;48.872;9.390;2022-07-10T15:06:31;1.25;;;0.38;;
53718;SDS011;39616;48.872;9.390;2022-07-10T15:09:02;0.85;;;0.25;;
53718;SDS011;39616;48.872;9.390;2022-07-10T15:11:32;3.40;;;0.30;;
53718;SDS011;39616;48.872;9.390;2022-07-10T15:14:04;0.88;;;0.25;;
53718;SDS011;39616;48.872;9.390;2022-07-10T15:16:35;1.00;;;0.30;;
53718;SDS011;39616;48.872;9.390;2022-07-10T15:19:05;0.47;;;0.30;;
53718;SDS011;39616;48.872;9.390;2022-07-10T15:21:36;3.13;;;0.30;;
53718;SDS011;39616;48.872;9.390;2022-07-10T15:24:07;0.88;;;0.40;;
53718;SDS011;39616;48.872;9.390;2022-07-10T15:26:37;0.55;;;0.30;;
53718;SDS011;39616;48.872;9.390;2022-07-10T15:29:07;2.80;;;0.32;;
53718;SDS011;39616;48.872;9.390;2022-07-10T15:31:38;1.23;;;0.30;;
53718;SDS011;39616;48.872;9.390;2022-07-10T15:34:09;0.55;;;0.30;;
53718;SDS011;39616;48.872;9.390;2022-07-10T15:36:42;0.98;;;0.30;;
53718;SDS011;39616;48.872;9.390;2022-07-10T15:39:15;0.38;;;0.30;;
53718;SDS011;39616;48.872;9.390;2022-07-10T15:41:46;0.45;;;0.30;;